sensor_id;sensor_type;location;lat;lon;timestamp;P1;durP1;ratioP1;P2;durP2;ratioP2
80985;SDS011;70451;51.226;6.412;2023-07-24T00:00:43;6.65;;;2.72;;
80985;SDS011;70451;51.226;6.412;2023-07-24T00:02:59;4.78;;;3.10;;
80985;SDS011;70451;51.226;6.412;2023-07-24T00:05:14;5.68;;;2.88;;
80985;SDS011;70451;51.226;6.412;2023-07-24T00:07:30;5.93;;;2.85;;
80985;SDS011;70451;51.226;6.412;2023-07-24T00:09:45;5.47;;;2.63;;
80985;SDS011;70451;51.226;6.412;2023-07-24T00:12:00;5.93;;;2.88;;
80985;SDS011;70451;51.226;6.412;2023-07-24T00:14:16;6.97;;;3.50;;
80985;SDS011;70451;51.226;6.412;2023-07-24T00:16:31;11.98;;;2.92;;
80985;SDS011;70451;51.226;6.412;2023-07-24T00:18:47;5.80;;;2.85;;
80985;SDS011;70451;51.226;6.412;2023-07-24T00:21:02;5.88;;;2.70;;
80985;SDS011;70451;51.226;6.412;2023-07-24T00:23:17;4.05;;;2.63;;
80985;SDS011;70451;51.226;6.412;2023-07-24T00:25:33;4.07;;;1.85;;
80985;SDS011;70451;51.226;6.412;2023-07-24T00:27:48;7.07;;;2.88;;
80985;SDS011;70451;51.226;6.412;2023-07-24T00:30:03;4.97;;;2.90;;
80985;SDS011;70451;51.226;6.412;2023-07-24T00:32:19;4.60;;;2.63;;
80985;SDS011;70451;51.226;6.412;2023-07-24T00:34:34;5.75;;;2.80;;
80985;SDS011;70451;51.226;6.412;2023-07-24T00:36:50;5.03;;;2.63;;
80985;SDS011;70451;51.226;6.412;2023-07-24T00:39:05;4.88;;;2.40;;
80985;SDS011;70451;51.226;6.412;2023-07-24T00:41:20;5.03;;;2.72;;
80985;SDS011;70451;51.226;6.412;2023-07-24T00:43:36;5.80;;;2.30;;
80985;SDS011;70451;51.226;6.412;2023-07-24T00:45:51;4.38;;;2.65;;
80985;SDS011;70451;51.226;6.412;2023-07-24T00:48:07;8.43;;;3.10;;
80985;SDS011;70451;51.226;6.412;2023-07-24T00:50:22;4.70;;;2.45;;
80985;SDS011;70451;51.226;6.412;2023-07-24T00:52:38;4.55;;;2.40;;
80985;SDS011;70451;51.226;6.412;2023-07-24T00:54:53;8.00;;;2.22;;
80985;SDS011;70451;51.226;6.412;2023-07-24T00:57:09;4.30;;;2.38;;
80985;SDS011;70451;51.226;6.412;2023-07-24T00:59:25;6.40;;;2.80;;
80985;SDS011;70451;51.226;6.412;2023-07-24T01:01:40;5.10;;;2.20;;
80985;SDS011;70451;51.226;6.412;2023-07-24T01:03:57;4.53;;;2.50;;
80985;SDS011;70451;51.226;6.412;2023-07-24T01:06:13;3.85;;;1.80;;
80985;SDS011;70451;51.226;6.412;2023-07-24T01:08:28;5.78;;;2.65;;
80985;SDS011;70451;51.226;6.412;2023-07-24T01:10:44;5.32;;;2.60;;
80985;SDS011;70451;51.226;6.412;2023-07-24T01:13:02;5.00;;;2.65;;
80985;SDS011;70451;51.226;6.412;2023-07-24T01:15:33;5.15;;;3.03;;
80985;SDS011;70451;51.226;6.412;2023-07-24T01:17:55;7.05;;;2.95;;
80985;SDS011;70451;51.226;6.412;2023-07-24T01:20:15;4.70;;;2.80;;
80985;SDS011;70451;51.226;6.412;2023-07-24T01:22:34;5.32;;;2.30;;
80985;SDS011;70451;51.226;6.412;2023-07-24T01:25:10;6.65;;;2.42;;
80985;SDS011;70451;51.226;6.412;2023-07-24T01:27:28;4.88;;;2.70;;
80985;SDS011;70451;51.226;6.412;2023-07-24T01:29:44;5.03;;;2.70;;
80985;SDS011;70451;51.226;6.412;2023-07-24T01:31:59;4.75;;;2.60;;
80985;SDS011;70451;51.226;6.412;2023-07-24T01:34:14;4.85;;;3.00;;
80985;SDS011;70451;51.226;6.412;2023-07-24T01:36:30;6.57;;;2.58;;
80985;SDS011;70451;51.226;6.412;2023-07-24T01:38:45;5.78;;;2.95;;
80985;SDS011;70451;51.226;6.412;2023-07-24T01:41:04;7.80;;;3.45;;
80985;SDS011;70451;51.226;6.412;2023-07-24T01:43:21;4.93;;;3.33;;
80985;SDS011;70451;51.226;6.412;2023-07-24T01:45:37;6.63;;;3.25;;
80985;SDS011;70451;51.226;6.412;2023-07-24T01:47:52;10.65;;;3.15;;
80985;SDS011;70451;51.226;6.412;2023-07-24T01:50:07;7.60;;;3.67;;
80985;SDS011;70451;51.226;6.412;2023-07-24T01:52:23;6.30;;;3.55;;
80985;SDS011;70451;51.226;6.412;2023-07-24T01:54:38;5.40;;;3.50;;
80985;SDS011;70451;51.226;6.412;2023-07-24T01:56:54;7.72;;;3.42;;
80985;SDS011;70451;51.226;6.412;2023-07-24T01:59:09;5.15;;;3.15;;
80985;SDS011;70451;51.226;6.412;2023-07-24T02:01:24;6.95;;;3.50;;
80985;SDS011;70451;51.226;6.412;2023-07-24T02:03:39;5.80;;;3.38;;
80985;SDS011;70451;51.226;6.412;2023-07-24T02:05:55;5.43;;;3.13;;
80985;SDS011;70451;51.226;6.412;2023-07-24T02:08:10;4.83;;;2.50;;
80985;SDS011;70451;51.226;6.412;2023-07-24T02:10:25;4.50;;;2.88;;
80985;SDS011;70451;51.226;6.412;2023-07-24T02:12:41;6.00;;;3.33;;
80985;SDS011;70451;51.226;6.412;2023-07-24T02:14:56;7.25;;;3.30;;
80985;SDS011;70451;51.226;6.412;2023-07-24T02:17:12;6.18;;;3.40;;
80985;SDS011;70451;51.226;6.412;2023-07-24T02:19:27;6.75;;;3.53;;
80985;SDS011;70451;51.226;6.412;2023-07-24T02:21:42;7.70;;;3.83;;
80985;SDS011;70451;51.226;6.412;2023-07-24T02:23:58;7.00;;;3.72;;
80985;SDS011;70451;51.226;6.412;2023-07-24T02:26:13;8.23;;;3.38;;
80985;SDS011;70451;51.226;6.412;2023-07-24T02:28:28;7.03;;;3.60;;
80985;SDS011;70451;51.226;6.412;2023-07-24T02:30:44;8.27;;;3.55;;
80985;SDS011;70451;51.226;6.412;2023-07-24T02:33:01;8.60;;;3.55;;
80985;SDS011;70451;51.226;6.412;2023-07-24T02:35:16;9.20;;;3.53;;
80985;SDS011;70451;51.226;6.412;2023-07-24T02:37:33;5.63;;;3.25;;
80985;SDS011;70451;51.226;6.412;2023-07-24T02:39:48;7.30;;;3.72;;
80985;SDS011;70451;51.226;6.412;2023-07-24T02:42:03;7.13;;;3.42;;
80985;SDS011;70451;51.226;6.412;2023-07-24T02:44:19;5.18;;;3.20;;
80985;SDS011;70451;51.226;6.412;2023-07-24T02:46:34;11.23;;;3.58;;
80985;SDS011;70451;51.226;6.412;2023-07-24T02:48:49;7.45;;;3.70;;
80985;SDS011;70451;51.226;6.412;2023-07-24T02:51:05;6.38;;;3.35;;
80985;SDS011;70451;51.226;6.412;2023-07-24T02:53:20;7.53;;;3.60;;
80985;SDS011;70451;51.226;6.412;2023-07-24T02:55:36;7.25;;;3.55;;
80985;SDS011;70451;51.226;6.412;2023-07-24T02:57:51;6.67;;;3.57;;
80985;SDS011;70451;51.226;6.412;2023-07-24T03:00:06;6.05;;;3.40;;
80985;SDS011;70451;51.226;6.412;2023-07-24T03:02:22;8.32;;;4.30;;
80985;SDS011;70451;51.226;6.412;2023-07-24T03:04:37;7.15;;;3.42;;
80985;SDS011;70451;51.226;6.412;2023-07-24T03:06:53;6.32;;;3.55;;
80985;SDS011;70451;51.226;6.412;2023-07-24T03:09:08;7.53;;;3.33;;
80985;SDS011;70451;51.226;6.412;2023-07-24T03:11:23;6.78;;;3.03;;
80985;SDS011;70451;51.226;6.412;2023-07-24T03:13:39;6.90;;;3.78;;
80985;SDS011;70451;51.226;6.412;2023-07-24T03:15:56;6.47;;;3.78;;
80985;SDS011;70451;51.226;6.412;2023-07-24T03:18:13;6.38;;;3.33;;
80985;SDS011;70451;51.226;6.412;2023-07-24T03:20:28;10.65;;;3.97;;
80985;SDS011;70451;51.226;6.412;2023-07-24T03:22:43;6.90;;;3.70;;
80985;SDS011;70451;51.226;6.412;2023-07-24T03:24:59;8.02;;;2.95;;
80985;SDS011;70451;51.226;6.412;2023-07-24T03:27:14;7.88;;;3.20;;
80985;SDS011;70451;51.226;6.412;2023-07-24T03:29:30;8.02;;;3.28;;
80985;SDS011;70451;51.226;6.412;2023-07-24T03:31:45;7.45;;;3.20;;
80985;SDS011;70451;51.226;6.412;2023-07-24T03:34:00;7.30;;;3.15;;
80985;SDS011;70451;51.226;6.412;2023-07-24T03:36:16;6.15;;;3.10;;
80985;SDS011;70451;51.226;6.412;2023-07-24T03:38:31;8.68;;;3.38;;
80985;SDS011;70451;51.226;6.412;2023-07-24T03:40:46;10.07;;;4.07;;
80985;SDS011;70451;51.226;6.412;2023-07-24T03:43:02;9.48;;;3.70;;
80985;SDS011;70451;51.226;6.412;2023-07-24T03:45:17;7.47;;;3.42;;
80985;SDS011;70451;51.226;6.412;2023-07-24T03:47:33;6.97;;;3.67;;
80985;SDS011;70451;51.226;6.412;2023-07-24T03:49:48;8.57;;;3.65;;
80985;SDS011;70451;51.226;6.412;2023-07-24T03:52:04;9.35;;;3.72;;
80985;SDS011;70451;51.226;6.412;2023-07-24T03:54:19;9.10;;;3.85;;
80985;SDS011;70451;51.226;6.412;2023-07-24T03:56:35;11.10;;;4.00;;
80985;SDS011;70451;51.226;6.412;2023-07-24T03:58:50;8.52;;;3.60;;
80985;SDS011;70451;51.226;6.412;2023-07-24T04:01:06;10.20;;;3.38;;
80985;SDS011;70451;51.226;6.412;2023-07-24T04:03:21;8.18;;;3.70;;
80985;SDS011;70451;51.226;6.412;2023-07-24T04:05:37;11.50;;;4.05;;
80985;SDS011;70451;51.226;6.412;2023-07-24T04:07:52;11.18;;;4.03;;
80985;SDS011;70451;51.226;6.412;2023-07-24T04:10:07;9.80;;;4.30;;
80985;SDS011;70451;51.226;6.412;2023-07-24T04:12:23;10.25;;;3.63;;
80985;SDS011;70451;51.226;6.412;2023-07-24T04:14:38;9.40;;;3.50;;
80985;SDS011;70451;51.226;6.412;2023-07-24T04:16:53;9.55;;;4.10;;
80985;SDS011;70451;51.226;6.412;2023-07-24T04:19:10;10.15;;;3.38;;
80985;SDS011;70451;51.226;6.412;2023-07-24T04:21:25;10.02;;;4.07;;
80985;SDS011;70451;51.226;6.412;2023-07-24T04:23:41;9.07;;;3.50;;
80985;SDS011;70451;51.226;6.412;2023-07-24T04:25:56;9.45;;;4.05;;
80985;SDS011;70451;51.226;6.412;2023-07-24T04:28:11;8.20;;;3.60;;
80985;SDS011;70451;51.226;6.412;2023-07-24T04:30:27;10.45;;;3.67;;
80985;SDS011;70451;51.226;6.412;2023-07-24T04:32:42;9.73;;;4.15;;
80985;SDS011;70451;51.226;6.412;2023-07-24T04:34:57;9.93;;;4.25;;
80985;SDS011;70451;51.226;6.412;2023-07-24T04:37:13;10.05;;;4.07;;
80985;SDS011;70451;51.226;6.412;2023-07-24T04:39:28;7.88;;;4.30;;
80985;SDS011;70451;51.226;6.412;2023-07-24T04:41:43;12.00;;;4.30;;
80985;SDS011;70451;51.226;6.412;2023-07-24T04:43:59;9.73;;;3.70;;
80985;SDS011;70451;51.226;6.412;2023-07-24T04:46:14;10.77;;;4.10;;
80985;SDS011;70451;51.226;6.412;2023-07-24T04:48:29;9.18;;;3.92;;
80985;SDS011;70451;51.226;6.412;2023-07-24T04:50:44;9.15;;;4.03;;
80985;SDS011;70451;51.226;6.412;2023-07-24T04:53:00;8.80;;;4.32;;
80985;SDS011;70451;51.226;6.412;2023-07-24T04:55:15;7.93;;;3.42;;
80985;SDS011;70451;51.226;6.412;2023-07-24T04:57:30;10.35;;;4.43;;
80985;SDS011;70451;51.226;6.412;2023-07-24T04:59:46;9.90;;;3.78;;
80985;SDS011;70451;51.226;6.412;2023-07-24T05:02:01;13.80;;;4.70;;
80985;SDS011;70451;51.226;6.412;2023-07-24T05:04:17;8.48;;;3.92;;
80985;SDS011;70451;51.226;6.412;2023-07-24T05:06:32;9.10;;;4.10;;
80985;SDS011;70451;51.226;6.412;2023-07-24T05:08:47;7.90;;;4.45;;
80985;SDS011;70451;51.226;6.412;2023-07-24T05:11:03;9.10;;;4.03;;
80985;SDS011;70451;51.226;6.412;2023-07-24T05:13:18;11.32;;;3.58;;
80985;SDS011;70451;51.226;6.412;2023-07-24T05:15:33;9.43;;;3.58;;
80985;SDS011;70451;51.226;6.412;2023-07-24T05:17:48;8.63;;;3.53;;
80985;SDS011;70451;51.226;6.412;2023-07-24T05:20:04;10.80;;;3.97;;
80985;SDS011;70451;51.226;6.412;2023-07-24T05:22:20;8.25;;;3.45;;
80985;SDS011;70451;51.226;6.412;2023-07-24T05:24:36;9.90;;;5.22;;
80985;SDS011;70451;51.226;6.412;2023-07-24T05:26:51;9.25;;;4.15;;
80985;SDS011;70451;51.226;6.412;2023-07-24T05:29:07;8.98;;;4.03;;
80985;SDS011;70451;51.226;6.412;2023-07-24T05:31:22;5.88;;;3.42;;
80985;SDS011;70451;51.226;6.412;2023-07-24T05:33:37;11.85;;;4.18;;
80985;SDS011;70451;51.226;6.412;2023-07-24T05:35:57;9.52;;;3.90;;
80985;SDS011;70451;51.226;6.412;2023-07-24T05:38:21;9.40;;;3.83;;
80985;SDS011;70451;51.226;6.412;2023-07-24T05:40:36;7.97;;;4.38;;
80985;SDS011;70451;51.226;6.412;2023-07-24T05:42:51;10.88;;;3.90;;
80985;SDS011;70451;51.226;6.412;2023-07-24T05:45:07;9.00;;;4.07;;
80985;SDS011;70451;51.226;6.412;2023-07-24T05:47:23;12.65;;;4.32;;
80985;SDS011;70451;51.226;6.412;2023-07-24T05:49:38;7.75;;;4.07;;
80985;SDS011;70451;51.226;6.412;2023-07-24T05:51:53;8.55;;;4.30;;
80985;SDS011;70451;51.226;6.412;2023-07-24T05:54:09;7.50;;;3.90;;
80985;SDS011;70451;51.226;6.412;2023-07-24T05:56:24;10.43;;;3.90;;
80985;SDS011;70451;51.226;6.412;2023-07-24T05:58:39;8.45;;;3.72;;
80985;SDS011;70451;51.226;6.412;2023-07-24T06:00:55;6.22;;;3.33;;
80985;SDS011;70451;51.226;6.412;2023-07-24T06:03:10;7.13;;;3.63;;
80985;SDS011;70451;51.226;6.412;2023-07-24T06:05:25;8.45;;;4.10;;
80985;SDS011;70451;51.226;6.412;2023-07-24T06:07:40;6.78;;;3.95;;
80985;SDS011;70451;51.226;6.412;2023-07-24T06:09:56;7.65;;;3.70;;
80985;SDS011;70451;51.226;6.412;2023-07-24T06:12:11;7.75;;;3.45;;
80985;SDS011;70451;51.226;6.412;2023-07-24T06:14:26;7.53;;;3.63;;
80985;SDS011;70451;51.226;6.412;2023-07-24T06:16:42;6.65;;;3.88;;
80985;SDS011;70451;51.226;6.412;2023-07-24T06:18:57;6.30;;;3.28;;
80985;SDS011;70451;51.226;6.412;2023-07-24T06:21:12;6.80;;;4.13;;
80985;SDS011;70451;51.226;6.412;2023-07-24T06:23:28;4.57;;;3.13;;
80985;SDS011;70451;51.226;6.412;2023-07-24T06:25:43;7.47;;;3.33;;
80985;SDS011;70451;51.226;6.412;2023-07-24T06:27:58;8.75;;;3.08;;
80985;SDS011;70451;51.226;6.412;2023-07-24T06:30:14;5.78;;;3.38;;
80985;SDS011;70451;51.226;6.412;2023-07-24T06:32:29;8.27;;;3.65;;
80985;SDS011;70451;51.226;6.412;2023-07-24T06:34:44;8.38;;;3.63;;
80985;SDS011;70451;51.226;6.412;2023-07-24T06:37:00;5.47;;;3.07;;
80985;SDS011;70451;51.226;6.412;2023-07-24T06:39:15;6.88;;;3.13;;
80985;SDS011;70451;51.226;6.412;2023-07-24T06:41:31;6.47;;;3.53;;
80985;SDS011;70451;51.226;6.412;2023-07-24T06:43:46;5.93;;;3.25;;
80985;SDS011;70451;51.226;6.412;2023-07-24T06:46:01;5.63;;;2.92;;
80985;SDS011;70451;51.226;6.412;2023-07-24T06:48:17;6.00;;;3.10;;
80985;SDS011;70451;51.226;6.412;2023-07-24T06:50:32;8.43;;;3.10;;
80985;SDS011;70451;51.226;6.412;2023-07-24T06:52:47;6.00;;;3.03;;
80985;SDS011;70451;51.226;6.412;2023-07-24T06:55:05;6.50;;;3.13;;
80985;SDS011;70451;51.226;6.412;2023-07-24T06:57:21;7.07;;;3.55;;
80985;SDS011;70451;51.226;6.412;2023-07-24T06:59:36;7.03;;;2.85;;
80985;SDS011;70451;51.226;6.412;2023-07-24T07:01:52;6.15;;;2.85;;
80985;SDS011;70451;51.226;6.412;2023-07-24T07:04:07;4.57;;;2.70;;
80985;SDS011;70451;51.226;6.412;2023-07-24T07:06:22;6.28;;;3.50;;
80985;SDS011;70451;51.226;6.412;2023-07-24T07:08:37;8.35;;;2.90;;
80985;SDS011;70451;51.226;6.412;2023-07-24T07:10:57;6.47;;;3.03;;
80985;SDS011;70451;51.226;6.412;2023-07-24T07:13:13;7.25;;;3.55;;
80985;SDS011;70451;51.226;6.412;2023-07-24T07:15:28;6.25;;;3.10;;
80985;SDS011;70451;51.226;6.412;2023-07-24T07:17:44;5.80;;;2.95;;
80985;SDS011;70451;51.226;6.412;2023-07-24T07:19:59;5.57;;;2.88;;
80985;SDS011;70451;51.226;6.412;2023-07-24T07:22:14;6.40;;;3.20;;
80985;SDS011;70451;51.226;6.412;2023-07-24T07:24:30;6.85;;;3.47;;
80985;SDS011;70451;51.226;6.412;2023-07-24T07:26:45;4.55;;;2.85;;
80985;SDS011;70451;51.226;6.412;2023-07-24T07:29:01;5.55;;;3.08;;
80985;SDS011;70451;51.226;6.412;2023-07-24T07:31:16;5.10;;;2.92;;
80985;SDS011;70451;51.226;6.412;2023-07-24T07:33:31;5.45;;;3.05;;
80985;SDS011;70451;51.226;6.412;2023-07-24T07:35:47;7.35;;;3.10;;
80985;SDS011;70451;51.226;6.412;2023-07-24T07:38:03;5.55;;;3.35;;
80985;SDS011;70451;51.226;6.412;2023-07-24T07:40:18;6.30;;;2.97;;
80985;SDS011;70451;51.226;6.412;2023-07-24T07:42:33;4.88;;;3.05;;
80985;SDS011;70451;51.226;6.412;2023-07-24T07:44:49;5.75;;;3.15;;
80985;SDS011;70451;51.226;6.412;2023-07-24T07:47:04;5.40;;;2.88;;
80985;SDS011;70451;51.226;6.412;2023-07-24T07:49:21;5.75;;;3.15;;
80985;SDS011;70451;51.226;6.412;2023-07-24T07:51:36;6.13;;;3.00;;
80985;SDS011;70451;51.226;6.412;2023-07-24T07:53:51;6.45;;;3.42;;
80985;SDS011;70451;51.226;6.412;2023-07-24T07:56:07;5.22;;;2.88;;
80985;SDS011;70451;51.226;6.412;2023-07-24T07:58:23;6.78;;;3.22;;
80985;SDS011;70451;51.226;6.412;2023-07-24T08:00:39;5.45;;;3.05;;
80985;SDS011;70451;51.226;6.412;2023-07-24T08:02:54;4.85;;;2.92;;
80985;SDS011;70451;51.226;6.412;2023-07-24T08:05:10;4.10;;;2.80;;
80985;SDS011;70451;51.226;6.412;2023-07-24T08:07:26;4.00;;;2.60;;
80985;SDS011;70451;51.226;6.412;2023-07-24T08:09:41;4.72;;;2.88;;
80985;SDS011;70451;51.226;6.412;2023-07-24T08:11:56;5.95;;;2.80;;
80985;SDS011;70451;51.226;6.412;2023-07-24T08:14:11;5.55;;;3.00;;
80985;SDS011;70451;51.226;6.412;2023-07-24T08:16:27;4.70;;;2.90;;
80985;SDS011;70451;51.226;6.412;2023-07-24T08:18:42;4.93;;;3.03;;
80985;SDS011;70451;51.226;6.412;2023-07-24T08:20:57;4.88;;;3.35;;
80985;SDS011;70451;51.226;6.412;2023-07-24T08:23:13;4.95;;;2.78;;
80985;SDS011;70451;51.226;6.412;2023-07-24T08:25:28;2.95;;;2.00;;
80985;SDS011;70451;51.226;6.412;2023-07-24T08:27:43;4.28;;;2.22;;
80985;SDS011;70451;51.226;6.412;2023-07-24T08:29:59;3.53;;;2.30;;
80985;SDS011;70451;51.226;6.412;2023-07-24T08:32:14;3.65;;;2.13;;
80985;SDS011;70451;51.226;6.412;2023-07-24T08:34:29;2.85;;;1.77;;
80985;SDS011;70451;51.226;6.412;2023-07-24T08:36:44;4.13;;;2.25;;
80985;SDS011;70451;51.226;6.412;2023-07-24T08:39:00;3.53;;;2.22;;
80985;SDS011;70451;51.226;6.412;2023-07-24T08:41:15;3.40;;;1.92;;
80985;SDS011;70451;51.226;6.412;2023-07-24T08:43:31;3.78;;;2.05;;
80985;SDS011;70451;51.226;6.412;2023-07-24T08:45:47;3.42;;;1.85;;
80985;SDS011;70451;51.226;6.412;2023-07-24T08:48:02;5.45;;;1.90;;
80985;SDS011;70451;51.226;6.412;2023-07-24T08:50:18;3.72;;;2.08;;
80985;SDS011;70451;51.226;6.412;2023-07-24T08:52:34;2.80;;;2.08;;
80985;SDS011;70451;51.226;6.412;2023-07-24T08:54:49;3.67;;;2.13;;
80985;SDS011;70451;51.226;6.412;2023-07-24T08:57:07;4.65;;;2.45;;
80985;SDS011;70451;51.226;6.412;2023-07-24T08:59:23;2.83;;;2.25;;
80985;SDS011;70451;51.226;6.412;2023-07-24T09:01:38;5.35;;;3.10;;
80985;SDS011;70451;51.226;6.412;2023-07-24T09:03:54;3.95;;;2.50;;
80985;SDS011;70451;51.226;6.412;2023-07-24T09:06:09;3.47;;;2.25;;
80985;SDS011;70451;51.226;6.412;2023-07-24T09:08:28;4.38;;;2.60;;
80985;SDS011;70451;51.226;6.412;2023-07-24T09:10:54;5.38;;;2.20;;
80985;SDS011;70451;51.226;6.412;2023-07-24T09:13:11;4.00;;;2.95;;
80985;SDS011;70451;51.226;6.412;2023-07-24T09:15:27;4.25;;;2.60;;
80985;SDS011;70451;51.226;6.412;2023-07-24T09:17:51;4.32;;;2.50;;
80985;SDS011;70451;51.226;6.412;2023-07-24T09:20:08;4.07;;;2.45;;
80985;SDS011;70451;51.226;6.412;2023-07-24T09:22:24;4.78;;;3.03;;
80985;SDS011;70451;51.226;6.412;2023-07-24T09:24:50;5.85;;;2.75;;
80985;SDS011;70451;51.226;6.412;2023-07-24T09:27:07;4.38;;;2.63;;
80985;SDS011;70451;51.226;6.412;2023-07-24T09:29:29;4.13;;;2.80;;
80985;SDS011;70451;51.226;6.412;2023-07-24T09:31:46;4.32;;;2.70;;
80985;SDS011;70451;51.226;6.412;2023-07-24T09:34:01;4.28;;;2.80;;
80985;SDS011;70451;51.226;6.412;2023-07-24T09:36:17;4.40;;;2.92;;
80985;SDS011;70451;51.226;6.412;2023-07-24T09:38:32;4.18;;;2.85;;
80985;SDS011;70451;51.226;6.412;2023-07-24T09:40:48;5.72;;;2.80;;
80985;SDS011;70451;51.226;6.412;2023-07-24T09:43:18;4.63;;;2.70;;
80985;SDS011;70451;51.226;6.412;2023-07-24T09:45:37;4.80;;;2.58;;
80985;SDS011;70451;51.226;6.412;2023-07-24T09:47:53;4.75;;;2.85;;
80985;SDS011;70451;51.226;6.412;2023-07-24T09:50:11;5.38;;;2.95;;
80985;SDS011;70451;51.226;6.412;2023-07-24T09:52:28;4.60;;;2.97;;
80985;SDS011;70451;51.226;6.412;2023-07-24T09:57:14;4.82;;;2.83;;
80985;SDS011;70451;51.226;6.412;2023-07-24T09:59:31;4.13;;;2.92;;
80985;SDS011;70451;51.226;6.412;2023-07-24T10:01:47;5.43;;;2.90;;
80985;SDS011;70451;51.226;6.412;2023-07-24T10:04:03;5.25;;;3.03;;
80985;SDS011;70451;51.226;6.412;2023-07-24T10:06:19;5.03;;;2.70;;
80985;SDS011;70451;51.226;6.412;2023-07-24T10:08:35;3.83;;;2.55;;
80985;SDS011;70451;51.226;6.412;2023-07-24T10:10:50;6.18;;;2.83;;
80985;SDS011;70451;51.226;6.412;2023-07-24T10:13:08;5.63;;;3.30;;
80985;SDS011;70451;51.226;6.412;2023-07-24T10:15:26;11.32;;;3.13;;
80985;SDS011;70451;51.226;6.412;2023-07-24T10:17:41;4.45;;;2.83;;
80985;SDS011;70451;51.226;6.412;2023-07-24T10:20:01;6.13;;;3.22;;
80985;SDS011;70451;51.226;6.412;2023-07-24T10:22:18;7.28;;;2.88;;
80985;SDS011;70451;51.226;6.412;2023-07-24T10:24:35;4.43;;;2.80;;
80985;SDS011;70451;51.226;6.412;2023-07-24T10:26:54;6.55;;;3.20;;
80985;SDS011;70451;51.226;6.412;2023-07-24T10:29:10;3.85;;;2.60;;
80985;SDS011;70451;51.226;6.412;2023-07-24T10:31:25;4.85;;;2.67;;
80985;SDS011;70451;51.226;6.412;2023-07-24T10:33:44;4.55;;;2.67;;
80985;SDS011;70451;51.226;6.412;2023-07-24T10:36:04;5.40;;;2.83;;
80985;SDS011;70451;51.226;6.412;2023-07-24T10:38:31;4.97;;;3.22;;
80985;SDS011;70451;51.226;6.412;2023-07-24T10:40:48;5.15;;;3.50;;
80985;SDS011;70451;51.226;6.412;2023-07-24T10:43:18;6.80;;;3.40;;
80985;SDS011;70451;51.226;6.412;2023-07-24T10:45:39;4.50;;;2.63;;
80985;SDS011;70451;51.226;6.412;2023-07-24T10:48:02;4.85;;;3.30;;
80985;SDS011;70451;51.226;6.412;2023-07-24T10:50:18;5.13;;;2.85;;
80985;SDS011;70451;51.226;6.412;2023-07-24T10:52:33;3.63;;;2.53;;
80985;SDS011;70451;51.226;6.412;2023-07-24T10:54:50;16.17;;;3.35;;
80985;SDS011;70451;51.226;6.412;2023-07-24T10:57:05;11.80;;;2.70;;
80985;SDS011;70451;51.226;6.412;2023-07-24T10:59:20;6.43;;;2.63;;
80985;SDS011;70451;51.226;6.412;2023-07-24T11:01:36;4.28;;;2.25;;
80985;SDS011;70451;51.226;6.412;2023-07-24T11:03:52;5.65;;;2.65;;
80985;SDS011;70451;51.226;6.412;2023-07-24T11:06:12;3.58;;;2.03;;
80985;SDS011;70451;51.226;6.412;2023-07-24T11:08:29;3.30;;;2.47;;
80985;SDS011;70451;51.226;6.412;2023-07-24T11:10:46;5.40;;;1.92;;
80985;SDS011;70451;51.226;6.412;2023-07-24T11:13:16;11.65;;;2.75;;
80985;SDS011;70451;51.226;6.412;2023-07-24T11:15:32;7.90;;;2.38;;
80985;SDS011;70451;51.226;6.412;2023-07-24T11:17:48;6.22;;;2.65;;
80985;SDS011;70451;51.226;6.412;2023-07-24T11:20:05;12.10;;;2.83;;
80985;SDS011;70451;51.226;6.412;2023-07-24T11:22:24;9.43;;;2.42;;
80985;SDS011;70451;51.226;6.412;2023-07-24T11:24:43;5.60;;;2.13;;
80985;SDS011;70451;51.226;6.412;2023-07-24T11:27:00;4.00;;;2.20;;
80985;SDS011;70451;51.226;6.412;2023-07-24T11:29:24;5.15;;;1.92;;
80985;SDS011;70451;51.226;6.412;2023-07-24T11:31:39;3.35;;;1.70;;
80985;SDS011;70451;51.226;6.412;2023-07-24T11:33:54;8.55;;;1.63;;
80985;SDS011;70451;51.226;6.412;2023-07-24T11:36:10;3.35;;;1.75;;
80985;SDS011;70451;51.226;6.412;2023-07-24T11:38:26;2.60;;;1.85;;
80985;SDS011;70451;51.226;6.412;2023-07-24T11:40:42;2.42;;;1.90;;
80985;SDS011;70451;51.226;6.412;2023-07-24T11:42:59;3.05;;;1.67;;
80985;SDS011;70451;51.226;6.412;2023-07-24T11:45:14;2.83;;;1.52;;
80985;SDS011;70451;51.226;6.412;2023-07-24T11:47:30;2.58;;;1.60;;
80985;SDS011;70451;51.226;6.412;2023-07-24T11:49:55;2.72;;;1.60;;
80985;SDS011;70451;51.226;6.412;2023-07-24T11:52:14;3.00;;;1.88;;
80985;SDS011;70451;51.226;6.412;2023-07-24T11:54:30;2.92;;;1.83;;
80985;SDS011;70451;51.226;6.412;2023-07-24T11:56:45;3.42;;;2.08;;
80985;SDS011;70451;51.226;6.412;2023-07-24T11:59:13;2.85;;;1.90;;
80985;SDS011;70451;51.226;6.412;2023-07-24T12:01:30;3.10;;;1.80;;
80985;SDS011;70451;51.226;6.412;2023-07-24T12:03:45;3.25;;;1.63;;
80985;SDS011;70451;51.226;6.412;2023-07-24T12:06:02;2.70;;;1.95;;
80985;SDS011;70451;51.226;6.412;2023-07-24T12:08:32;4.55;;;1.98;;
80985;SDS011;70451;51.226;6.412;2023-07-24T12:10:48;3.15;;;2.00;;
80985;SDS011;70451;51.226;6.412;2023-07-24T12:13:04;2.15;;;1.63;;
80985;SDS011;70451;51.226;6.412;2023-07-24T12:15:20;3.05;;;1.60;;
80985;SDS011;70451;51.226;6.412;2023-07-24T12:17:35;3.88;;;1.77;;
80985;SDS011;70451;51.226;6.412;2023-07-24T12:19:51;2.95;;;1.90;;
80985;SDS011;70451;51.226;6.412;2023-07-24T12:22:06;3.75;;;2.03;;
80985;SDS011;70451;51.226;6.412;2023-07-24T12:24:22;2.63;;;1.80;;
80985;SDS011;70451;51.226;6.412;2023-07-24T12:26:37;3.03;;;1.70;;
80985;SDS011;70451;51.226;6.412;2023-07-24T12:28:52;2.60;;;1.67;;
80985;SDS011;70451;51.226;6.412;2023-07-24T12:31:08;3.22;;;1.90;;
80985;SDS011;70451;51.226;6.412;2023-07-24T12:33:23;3.33;;;1.90;;
80985;SDS011;70451;51.226;6.412;2023-07-24T12:35:38;4.35;;;1.92;;
80985;SDS011;70451;51.226;6.412;2023-07-24T12:37:54;2.33;;;1.63;;
80985;SDS011;70451;51.226;6.412;2023-07-24T12:40:09;2.72;;;2.03;;
80985;SDS011;70451;51.226;6.412;2023-07-24T12:42:25;2.35;;;1.40;;
80985;SDS011;70451;51.226;6.412;2023-07-24T12:44:42;2.42;;;1.75;;
80985;SDS011;70451;51.226;6.412;2023-07-24T12:46:58;3.03;;;1.73;;
80985;SDS011;70451;51.226;6.412;2023-07-24T12:49:13;1.95;;;1.52;;
80985;SDS011;70451;51.226;6.412;2023-07-24T12:51:28;2.08;;;1.42;;
80985;SDS011;70451;51.226;6.412;2023-07-24T12:53:43;2.55;;;1.60;;
80985;SDS011;70451;51.226;6.412;2023-07-24T12:55:59;2.03;;;1.35;;
80985;SDS011;70451;51.226;6.412;2023-07-24T12:58:14;2.40;;;1.63;;
80985;SDS011;70451;51.226;6.412;2023-07-24T13:00:29;3.13;;;2.00;;
80985;SDS011;70451;51.226;6.412;2023-07-24T13:02:46;2.45;;;1.80;;
80985;SDS011;70451;51.226;6.412;2023-07-24T13:05:02;2.97;;;1.77;;
80985;SDS011;70451;51.226;6.412;2023-07-24T13:07:17;2.50;;;1.70;;
80985;SDS011;70451;51.226;6.412;2023-07-24T13:09:32;3.35;;;1.70;;
80985;SDS011;70451;51.226;6.412;2023-07-24T13:11:48;2.45;;;1.88;;
80985;SDS011;70451;51.226;6.412;2023-07-24T13:14:05;2.45;;;1.75;;
80985;SDS011;70451;51.226;6.412;2023-07-24T13:16:21;2.53;;;1.58;;
80985;SDS011;70451;51.226;6.412;2023-07-24T13:18:37;2.97;;;1.77;;
80985;SDS011;70451;51.226;6.412;2023-07-24T13:20:52;2.88;;;1.70;;
80985;SDS011;70451;51.226;6.412;2023-07-24T13:23:07;2.63;;;1.58;;
80985;SDS011;70451;51.226;6.412;2023-07-24T13:25:22;5.72;;;2.00;;
80985;SDS011;70451;51.226;6.412;2023-07-24T13:27:38;2.05;;;1.52;;
80985;SDS011;70451;51.226;6.412;2023-07-24T13:29:53;1.88;;;1.67;;
80985;SDS011;70451;51.226;6.412;2023-07-24T13:32:08;2.30;;;1.27;;
80985;SDS011;70451;51.226;6.412;2023-07-24T13:34:24;2.42;;;1.50;;
80985;SDS011;70451;51.226;6.412;2023-07-24T13:36:39;2.22;;;1.70;;
80985;SDS011;70451;51.226;6.412;2023-07-24T13:38:55;2.20;;;1.40;;
80985;SDS011;70451;51.226;6.412;2023-07-24T13:41:10;3.17;;;1.52;;